createdAt,value
2023-06-19T00:00:28.041Z,3.03
2023-06-19T00:01:28.054Z,2.84
2023-06-19T00:02:28.173Z,3.38
2023-06-19T00:03:28.086Z,2.80
2023-06-19T00:04:28.196Z,3.42
2023-06-19T00:05:28.033Z,3.26
2023-06-19T00:06:28.040Z,2.75
2023-06-19T00:07:28.090Z,2.53
2023-06-19T00:08:28.093Z,2.90
2023-06-19T00:09:28.444Z,3.38
2023-06-19T00:10:28.037Z,3.03
2023-06-19T00:11:28.059Z,2.90
2023-06-19T00:12:28.075Z,2.71
2023-06-19T00:13:28.116Z,2.80
2023-06-19T00:14:28.094Z,3.31
2023-06-19T00:15:28.081Z,3.30
2023-06-19T00:16:28.102Z,3.07
2023-06-19T00:17:28.098Z,2.71
2023-06-19T00:18:28.119Z,2.92
2023-06-19T00:19:28.104Z,2.90
2023-06-19T00:20:28.118Z,2.94
2023-06-19T00:21:28.118Z,3.03
2023-06-19T00:22:28.131Z,2.84
2023-06-19T00:23:28.136Z,2.83
2023-06-19T00:24:28.236Z,3.11
2023-06-19T00:25:28.116Z,3.52
2023-06-19T00:26:28.215Z,2.66
2023-06-19T00:27:28.153Z,2.67
2023-06-19T00:28:28.132Z,2.94
2023-06-19T00:29:28.175Z,3.57
2023-06-19T00:30:28.125Z,2.48
2023-06-19T00:31:28.141Z,3.15
2023-06-19T00:32:28.162Z,3.00
2023-06-19T00:33:28.163Z,2.78
2023-06-19T00:34:28.174Z,2.75
2023-06-19T00:35:28.186Z,3.21
2023-06-19T00:36:28.187Z,2.71
2023-06-19T00:37:28.189Z,2.72
2023-06-19T00:38:28.191Z,2.84
2023-06-19T00:39:28.196Z,2.72
2023-06-19T00:40:28.221Z,3.04
2023-06-19T00:41:28.298Z,2.60
2023-06-19T00:42:28.206Z,2.83
2023-06-19T00:43:28.231Z,2.76
2023-06-19T00:44:28.233Z,2.64
2023-06-19T00:45:28.231Z,3.03
2023-06-19T00:46:28.315Z,3.03
2023-06-19T00:47:28.290Z,2.46
2023-06-19T00:48:28.282Z,2.91
2023-06-19T00:49:28.329Z,2.70
2023-06-19T00:50:28.266Z,2.56
2023-06-19T00:51:28.273Z,2.60
2023-06-19T00:52:28.293Z,3.01
2023-06-19T00:53:28.253Z,3.06
2023-06-19T00:54:28.304Z,2.77
2023-06-19T00:55:28.391Z,3.14
2023-06-19T00:56:28.367Z,2.63
2023-06-19T00:57:28.366Z,2.69
2023-06-19T00:58:28.328Z,2.91
2023-06-19T00:59:28.330Z,2.60
2023-06-19T01:00:29.222Z,2.72
2023-06-19T01:01:28.384Z,2.59
2023-06-19T01:02:28.413Z,2.69
2023-06-19T01:03:28.400Z,3.04
2023-06-19T01:04:28.331Z,3.04
2023-06-19T01:05:28.363Z,2.70
2023-06-19T01:06:28.327Z,3.09
2023-06-19T01:07:28.691Z,2.69
2023-06-19T01:08:28.397Z,2.37
2023-06-19T01:09:28.352Z,3.10
2023-06-19T01:10:28.639Z,3.23
2023-06-19T01:11:28.363Z,3.08
2023-06-19T01:12:28.440Z,2.63
2023-06-19T01:13:28.392Z,2.89
2023-06-19T01:14:28.409Z,2.52
2023-06-19T01:15:28.441Z,2.62
2023-06-19T01:16:28.423Z,2.52
2023-06-19T01:17:28.484Z,2.60
2023-06-19T01:18:28.415Z,2.46
2023-06-19T01:19:28.423Z,2.63
2023-06-19T01:20:28.422Z,2.89
2023-06-19T01:21:28.434Z,3.00
2023-06-19T01:22:28.506Z,2.37
2023-06-19T01:23:28.466Z,2.54
2023-06-19T01:24:28.537Z,2.65
2023-06-19T01:25:28.462Z,2.38
2023-06-19T01:26:28.477Z,2.85
2023-06-19T01:27:28.503Z,2.81
2023-06-19T01:28:28.591Z,2.92
2023-06-19T01:29:28.541Z,2.86
2023-06-19T01:30:28.574Z,2.98
2023-06-19T01:31:28.622Z,2.99
2023-06-19T01:32:28.610Z,2.21
2023-06-19T01:33:28.592Z,2.70
2023-06-19T01:34:28.585Z,2.67
2023-06-19T01:35:28.646Z,3.29
2023-06-19T01:36:28.593Z,3.12
2023-06-19T01:37:28.651Z,3.05
2023-06-19T01:38:28.625Z,2.85
2023-06-19T01:39:28.609Z,3.06
2023-06-19T01:40:28.647Z,3.46
2023-06-19T01:41:28.654Z,3.13
2023-06-19T01:42:28.632Z,2.57
2023-06-19T01:43:28.702Z,2.85
2023-06-19T01:44:28.705Z,3.15
2023-06-19T01:45:28.686Z,3.03
2023-06-19T01:46:28.760Z,3.14
2023-06-19T01:47:28.763Z,2.75
2023-06-19T01:48:28.733Z,2.73
2023-06-19T01:49:28.757Z,2.34
2023-06-19T01:50:28.745Z,2.55
2023-06-19T01:51:28.792Z,2.78
2023-06-19T01:52:29.088Z,2.42
2023-06-19T01:53:28.768Z,2.89
2023-06-19T01:54:28.829Z,2.81
2023-06-19T01:55:28.777Z,2.92
2023-06-19T01:56:28.787Z,2.47
2023-06-19T01:57:28.794Z,2.96
2023-06-19T01:58:28.809Z,2.47
2023-06-19T01:59:28.790Z,2.59
2023-06-19T02:00:29.581Z,2.35
2023-06-19T02:01:28.890Z,2.81
2023-06-19T02:02:28.854Z,2.34
2023-06-19T02:03:28.899Z,2.54
2023-06-19T02:04:28.833Z,2.81
2023-06-19T02:05:28.845Z,2.68
2023-06-19T02:06:29.251Z,2.56
2023-06-19T02:07:28.915Z,2.84
2023-06-19T02:08:28.908Z,2.68
2023-06-19T02:09:28.903Z,2.86
2023-06-19T02:10:28.921Z,2.52
2023-06-19T02:11:28.952Z,2.80
2023-06-19T02:12:28.887Z,2.38
2023-06-19T02:13:28.944Z,2.75
2023-06-19T02:14:28.897Z,2.17
2023-06-19T02:15:28.984Z,2.54
2023-06-19T02:16:29.009Z,2.81
2023-06-19T02:17:29.083Z,2.86
2023-06-19T02:18:29.239Z,2.37
2023-06-19T02:19:29.011Z,2.50
2023-06-19T02:20:28.995Z,2.65
2023-06-19T02:21:29.003Z,2.56
2023-06-19T02:22:29.071Z,2.76
2023-06-19T02:23:29.066Z,2.44
2023-06-19T02:24:29.113Z,2.79
2023-06-19T02:25:29.048Z,2.69
2023-06-19T02:26:29.083Z,2.90
2023-06-19T02:27:29.086Z,3.38
2023-06-19T02:28:29.106Z,2.54
2023-06-19T02:29:29.461Z,2.42
2023-06-19T02:30:29.197Z,2.45
2023-06-19T02:31:29.177Z,2.65
2023-06-19T02:32:29.364Z,2.53
2023-06-19T02:33:29.146Z,3.02
2023-06-19T02:34:29.293Z,2.97
2023-06-19T02:35:29.198Z,2.27
2023-06-19T02:36:29.257Z,2.52
2023-06-19T02:37:29.270Z,2.76
2023-06-19T02:38:29.259Z,2.64
2023-06-19T02:39:29.475Z,3.08
2023-06-19T02:40:29.297Z,2.20
2023-06-19T02:41:29.334Z,2.40
2023-06-19T02:42:29.319Z,2.82
2023-06-19T02:43:29.345Z,2.95
2023-06-19T02:44:29.378Z,3.06
2023-06-19T02:45:29.462Z,2.61
2023-06-19T02:46:29.494Z,2.57
2023-06-19T02:47:29.442Z,2.08
2023-06-19T02:48:29.433Z,2.72
2023-06-19T02:49:29.495Z,2.58
2023-06-19T02:50:29.510Z,2.93
2023-06-19T02:51:29.510Z,2.68
2023-06-19T02:52:29.552Z,2.59
2023-06-19T02:53:29.519Z,2.38
2023-06-19T02:54:29.585Z,2.52
2023-06-19T02:55:29.593Z,2.30
2023-06-19T02:56:29.606Z,2.99
2023-06-19T02:57:29.721Z,2.96
2023-06-19T02:58:29.605Z,2.78
2023-06-19T02:59:29.669Z,2.69
2023-06-19T03:00:29.718Z,2.87
2023-06-19T03:01:29.787Z,2.84
2023-06-19T03:02:29.764Z,2.31
2023-06-19T03:03:29.909Z,2.49
2023-06-19T03:04:29.815Z,2.84
2023-06-19T03:05:29.757Z,2.27
2023-06-19T03:06:29.787Z,2.55
2023-06-19T03:07:29.858Z,2.53
2023-06-19T03:08:29.823Z,2.82
2023-06-19T03:09:29.798Z,2.72
2023-06-19T03:10:29.848Z,2.54
2023-06-19T03:11:29.863Z,2.34
2023-06-19T03:12:29.866Z,2.35
2023-06-19T03:13:29.930Z,3.03
2023-06-19T03:14:29.922Z,2.44
2023-06-19T03:15:29.933Z,2.73
2023-06-19T03:16:30.063Z,2.51
2023-06-19T03:17:30.358Z,2.57
2023-06-19T03:18:30.060Z,2.85
2023-06-19T03:19:30.005Z,2.95
2023-06-19T03:20:30.073Z,2.91
2023-06-19T03:21:30.077Z,2.37
2023-06-19T03:22:30.089Z,2.68
2023-06-19T03:23:30.138Z,2.57
2023-06-19T03:24:30.259Z,2.44
2023-06-19T03:25:30.157Z,2.31
2023-06-19T03:26:30.215Z,2.74
2023-06-19T03:27:30.170Z,3.00
2023-06-19T03:28:30.197Z,2.43
2023-06-19T03:29:30.292Z,2.61
2023-06-19T03:30:30.241Z,2.49
2023-06-19T03:31:30.293Z,2.03
2023-06-19T03:32:32.433Z,2.93
2023-06-19T03:33:30.318Z,2.52
2023-06-19T03:34:30.318Z,2.96
2023-06-19T03:35:30.317Z,2.93
2023-06-19T03:36:30.505Z,2.46
2023-06-19T03:37:30.393Z,2.46
2023-06-19T03:38:30.439Z,2.39
2023-06-19T03:39:30.454Z,2.50
2023-06-19T03:40:32.348Z,2.89
2023-06-19T03:41:30.509Z,3.08
2023-06-19T03:42:30.535Z,2.40
2023-06-19T03:43:30.544Z,2.57
2023-06-19T03:44:30.555Z,2.72
2023-06-19T03:45:30.554Z,3.03
2023-06-19T03:46:30.643Z,2.31
2023-06-19T03:47:30.650Z,2.47
2023-06-19T03:48:30.683Z,2.79
2023-06-19T03:49:30.677Z,2.63
2023-06-19T03:50:30.896Z,2.56
2023-06-19T03:51:30.733Z,2.76
2023-06-19T03:52:30.701Z,2.48
2023-06-19T03:53:31.059Z,2.88
2023-06-19T03:54:30.810Z,2.36
2023-06-19T03:55:30.832Z,2.92
2023-06-19T03:56:30.831Z,2.59
2023-06-19T03:57:30.852Z,2.46
2023-06-19T03:58:30.896Z,2.37
2023-06-19T03:59:30.896Z,2.50
2023-06-19T04:00:30.916Z,2.99
2023-06-19T04:01:31.057Z,2.27
2023-06-19T04:02:31.031Z,2.39
2023-06-19T04:03:31.069Z,2.83
2023-06-19T04:04:31.022Z,2.57
2023-06-19T04:05:31.042Z,2.53
2023-06-19T04:06:31.056Z,2.22
2023-06-19T04:07:31.118Z,2.49
2023-06-19T04:08:31.126Z,2.47
2023-06-19T04:09:31.129Z,3.17
2023-06-19T04:10:31.808Z,2.54
2023-06-19T04:11:31.188Z,2.52
2023-06-19T04:12:31.237Z,2.76
2023-06-19T04:13:31.256Z,2.68
2023-06-19T04:14:31.266Z,2.72
2023-06-19T04:15:31.342Z,2.69
2023-06-19T04:16:31.412Z,2.51
2023-06-19T04:17:31.455Z,2.79
2023-06-19T04:18:31.397Z,2.88
2023-06-19T04:19:31.401Z,2.86
2023-06-19T04:20:31.413Z,2.87
2023-06-19T04:21:31.464Z,2.71
2023-06-19T04:22:31.472Z,2.77
2023-06-19T04:23:31.481Z,2.75
2023-06-19T04:24:31.565Z,2.58
2023-06-19T04:25:31.537Z,2.35
2023-06-19T04:26:31.590Z,2.33
2023-06-19T04:27:31.597Z,2.99
2023-06-19T04:28:31.741Z,3.09
2023-06-19T04:29:31.641Z,2.97
2023-06-19T04:30:31.741Z,3.32
2023-06-19T04:31:31.732Z,2.59
2023-06-19T04:32:31.795Z,3.17
2023-06-19T04:33:31.858Z,2.59
2023-06-19T04:34:31.771Z,2.56
2023-06-19T04:35:31.856Z,2.52
2023-06-19T04:36:31.866Z,2.64
2023-06-19T04:37:31.874Z,2.55
2023-06-19T04:38:31.941Z,3.01
2023-06-19T04:39:31.919Z,2.90
2023-06-19T04:40:31.995Z,2.69
2023-06-19T04:41:32.009Z,2.45
2023-06-19T04:42:32.025Z,2.79
2023-06-19T04:43:32.080Z,2.91
2023-06-19T04:44:32.077Z,2.83
2023-06-19T04:45:32.119Z,2.61
2023-06-19T04:46:32.185Z,3.48
2023-06-19T04:47:43.569Z,2.65
2023-06-19T04:48:33.214Z,3.11
2023-06-19T04:49:32.154Z,2.77
2023-06-19T04:50:32.281Z,2.86
2023-06-19T04:51:32.132Z,2.80
2023-06-19T04:52:32.137Z,2.79
2023-06-19T04:53:32.145Z,3.00
2023-06-19T04:54:32.152Z,3.19
2023-06-19T04:55:32.090Z,2.84
2023-06-19T04:56:32.098Z,2.44
2023-06-19T04:57:32.111Z,3.13
2023-06-19T04:58:32.173Z,2.77
2023-06-19T04:59:32.078Z,2.90
2023-06-19T05:00:32.090Z,3.06
2023-06-19T05:01:32.124Z,3.10
2023-06-19T05:02:32.085Z,2.77
2023-06-19T05:03:32.042Z,3.04
2023-06-19T05:04:32.120Z,2.69
2023-06-19T05:05:32.119Z,2.95
2023-06-19T05:06:32.105Z,2.57
2023-06-19T05:07:32.140Z,2.78
2023-06-19T05:08:32.200Z,3.04
2023-06-19T05:09:32.213Z,3.06
2023-06-19T05:10:32.258Z,3.12
2023-06-19T05:11:32.245Z,3.50
2023-06-19T05:12:32.533Z,2.70
2023-06-19T05:13:32.338Z,3.10
2023-06-19T05:14:32.336Z,2.82
2023-06-19T05:15:32.454Z,3.06
2023-06-19T05:16:34.380Z,2.81
2023-06-19T05:17:32.543Z,3.13
2023-06-19T05:18:32.467Z,3.12
2023-06-19T05:19:32.363Z,3.31
2023-06-19T05:20:32.379Z,3.74
2023-06-19T05:21:32.353Z,2.90
2023-06-19T05:22:32.344Z,3.49
2023-06-19T05:23:32.351Z,2.70
2023-06-19T05:24:32.477Z,3.27
2023-06-19T05:25:32.330Z,2.91
2023-06-19T05:26:32.326Z,2.88
2023-06-19T05:27:32.312Z,3.36
2023-06-19T05:28:32.342Z,3.07
2023-06-19T05:29:32.293Z,3.46
2023-06-19T05:30:32.308Z,2.52
2023-06-19T05:31:32.283Z,3.19
2023-06-19T05:32:32.289Z,3.58
2023-06-19T05:33:32.295Z,3.45
2023-06-19T05:34:32.808Z,3.10
2023-06-19T05:35:32.275Z,4.85
2023-06-19T05:36:32.236Z,6.32
2023-06-19T05:37:32.299Z,6.59
2023-06-19T05:39:35.616Z,7.41
2023-06-19T05:40:35.789Z,7.85
2023-06-19T05:41:35.997Z,8.84
2023-06-19T05:42:36.130Z,7.87
2023-06-19T05:43:36.427Z,7.94
2023-06-19T05:44:36.583Z,9.29
2023-06-19T05:45:36.814Z,8.91
2023-06-19T05:46:36.965Z,10.68
2023-06-19T05:47:37.161Z,9.22
2023-06-19T05:48:37.242Z,8.22
2023-06-19T05:49:37.601Z,9.38
2023-06-19T05:50:37.716Z,9.55
2023-06-19T05:51:37.925Z,8.83
2023-06-19T05:52:38.122Z,8.54
2023-06-19T05:53:38.304Z,10.11
2023-06-19T05:54:38.434Z,8.33
2023-06-19T05:55:38.647Z,11.03
2023-06-19T05:56:38.764Z,10.55
2023-06-19T05:57:38.907Z,10.87
2023-06-19T05:58:39.194Z,10.73
2023-06-19T05:59:39.292Z,10.97
2023-06-19T06:00:39.471Z,10.54
2023-06-19T06:01:39.759Z,23.28
2023-06-19T06:02:39.878Z,10.32
2023-06-19T06:03:40.013Z,9.88
2023-06-19T06:04:40.248Z,10.79
2023-06-19T06:05:40.416Z,10.62
2023-06-19T06:06:40.649Z,9.90
2023-06-19T06:07:41.673Z,10.67
2023-06-19T06:08:40.862Z,10.67
2023-06-19T06:09:40.797Z,9.26
2023-06-19T06:10:41.027Z,7.71
2023-06-19T06:11:40.826Z,9.06
2023-06-19T06:12:40.797Z,7.82
2023-06-19T06:13:40.761Z,7.72
2023-06-19T06:14:40.771Z,8.89
2023-06-19T06:15:40.734Z,8.20
2023-06-19T06:16:41.122Z,7.73
2023-06-19T06:17:40.790Z,8.48
2023-06-19T06:18:40.719Z,8.89
2023-06-19T06:19:40.737Z,9.04
2023-06-19T06:20:40.754Z,8.81
2023-06-19T06:21:40.711Z,7.78
2023-06-19T06:22:40.720Z,8.01
2023-06-19T06:23:40.728Z,9.64
2023-06-19T06:24:40.740Z,8.40
2023-06-19T06:25:40.674Z,9.10
2023-06-19T06:26:40.648Z,8.97
2023-06-19T06:27:40.650Z,10.10
2023-06-19T06:28:40.796Z,9.49
2023-06-19T06:29:40.665Z,9.82
2023-06-19T06:30:40.648Z,9.31
2023-06-19T06:31:40.753Z,9.60
2023-06-19T06:32:40.647Z,9.85
2023-06-19T06:33:40.646Z,8.00
2023-06-19T06:34:40.630Z,8.19
2023-06-19T06:35:40.632Z,7.95
2023-06-19T06:36:49.347Z,7.54
2023-06-19T06:37:41.664Z,9.43
2023-06-19T06:38:40.614Z,9.52
2023-06-19T06:39:40.616Z,8.18
2023-06-19T06:40:40.566Z,8.95
2023-06-19T06:41:40.603Z,21.33
2023-06-19T06:42:40.551Z,10.18
2023-06-19T06:43:40.599Z,8.29
2023-06-19T06:44:40.577Z,8.86
2023-06-19T06:45:40.631Z,7.98
2023-06-19T06:46:40.543Z,7.76
2023-06-19T06:47:40.591Z,7.58
2023-06-19T06:48:40.568Z,8.22
2023-06-19T06:49:40.544Z,9.43
2023-06-19T06:50:40.498Z,10.14
2023-06-19T06:51:40.505Z,9.90
2023-06-19T06:52:40.490Z,10.34
2023-06-19T06:53:40.491Z,10.81
2023-06-19T06:54:40.487Z,10.83
2023-06-19T06:55:40.539Z,11.06
2023-06-19T06:56:40.543Z,10.84
2023-06-19T06:57:40.538Z,10.87
2023-06-19T06:58:40.537Z,10.95
2023-06-19T06:59:40.537Z,10.61
2023-06-19T07:00:40.578Z,11.45
2023-06-19T07:01:40.800Z,12.19
2023-06-19T07:02:40.609Z,10.85
2023-06-19T07:03:40.588Z,11.96
2023-06-19T07:04:40.595Z,12.22
2023-06-19T07:05:40.652Z,12.41
2023-06-19T07:06:40.642Z,12.28
2023-06-19T07:07:40.761Z,11.34
2023-06-19T07:08:40.772Z,11.86
2023-06-19T07:09:40.772Z,11.93
2023-06-19T07:10:40.817Z,11.48
2023-06-19T07:11:40.975Z,12.67
2023-06-19T07:12:40.848Z,12.17
2023-06-19T07:13:40.896Z,13.27
2023-06-19T07:14:40.955Z,12.33
2023-06-19T07:15:41.058Z,12.75
2023-06-19T07:16:41.022Z,13.11
2023-06-19T07:17:41.076Z,12.06
2023-06-19T07:18:41.073Z,12.37
2023-06-19T07:19:41.112Z,13.54
2023-06-19T07:20:41.196Z,13.63
2023-06-19T07:21:41.210Z,11.71
2023-06-19T07:22:42.116Z,12.32
2023-06-19T07:23:41.284Z,11.92
2023-06-19T07:24:41.299Z,11.31
2023-06-19T07:25:41.371Z,13.15
2023-06-19T07:26:41.408Z,12.47
2023-06-19T07:27:41.404Z,12.05
2023-06-19T07:28:41.467Z,11.22
2023-06-19T07:29:41.501Z,12.14
2023-06-19T07:30:41.552Z,12.82
2023-06-19T07:31:41.636Z,12.98
2023-06-19T07:32:41.645Z,12.81
2023-06-19T07:33:41.672Z,12.86
2023-06-19T07:34:41.660Z,12.52
2023-06-19T07:35:41.696Z,12.71
2023-06-19T07:36:41.774Z,12.33
2023-06-19T07:37:41.805Z,12.13
2023-06-19T07:38:41.838Z,12.52
2023-06-19T07:39:41.865Z,13.19
2023-06-19T07:40:41.938Z,12.72
2023-06-19T07:41:42.046Z,12.63
2023-06-19T07:42:44.319Z,12.48
2023-06-19T07:43:41.992Z,12.83
2023-06-19T07:44:41.953Z,12.67
2023-06-19T07:45:41.973Z,13.80
2023-06-19T07:46:41.977Z,12.49
2023-06-19T07:47:41.989Z,12.94
2023-06-19T07:48:41.928Z,12.54
2023-06-19T07:49:41.937Z,11.94
2023-06-19T07:50:41.904Z,12.91
2023-06-19T07:51:41.900Z,12.46
2023-06-19T07:52:41.926Z,12.16
2023-06-19T07:53:41.926Z,11.99
2023-06-19T07:54:41.891Z,12.47
2023-06-19T07:55:41.906Z,12.49
2023-06-19T07:56:41.876Z,13.16
2023-06-19T07:57:41.887Z,12.85
2023-06-19T07:58:41.848Z,12.70
2023-06-19T07:59:41.884Z,13.09
2023-06-19T08:00:41.878Z,12.68
2023-06-19T08:01:41.842Z,12.54
2023-06-19T08:02:41.868Z,12.57
2023-06-19T08:03:41.928Z,12.84
2023-06-19T08:04:41.939Z,13.04
2023-06-19T08:05:41.847Z,12.67
2023-06-19T08:06:42.045Z,13.43
2023-06-19T08:07:42.639Z,13.13
2023-06-19T08:08:41.792Z,13.64
2023-06-19T08:09:41.796Z,12.70
2023-06-19T08:10:41.951Z,11.51
2023-06-19T08:11:41.836Z,13.38
2023-06-19T08:12:41.771Z,13.60
2023-06-19T08:13:41.752Z,12.95
2023-06-19T08:14:41.764Z,11.92
2023-06-19T08:15:41.840Z,13.39
2023-06-19T08:16:41.727Z,12.61
2023-06-19T08:17:41.736Z,12.08
2023-06-19T08:18:41.697Z,11.85
2023-06-19T08:19:41.716Z,12.92
2023-06-19T08:20:41.720Z,12.31
2023-06-19T08:21:41.755Z,13.27
2023-06-19T08:22:41.702Z,12.78
2023-06-19T08:23:41.727Z,12.12
2023-06-19T08:24:41.735Z,12.43
2023-06-19T08:25:41.668Z,12.17
2023-06-19T08:26:41.681Z,12.34
2023-06-19T08:27:41.674Z,13.08
2023-06-19T08:28:41.657Z,12.80
2023-06-19T08:29:41.645Z,13.37
2023-06-19T08:30:41.654Z,13.06
2023-06-19T08:31:41.651Z,12.27
2023-06-19T08:32:41.673Z,13.33
2023-06-19T08:33:41.691Z,11.58
2023-06-19T08:34:41.654Z,12.00
2023-06-19T08:35:41.632Z,12.27
2023-06-19T08:36:41.608Z,12.98
2023-06-19T08:37:41.628Z,12.06
2023-06-19T08:38:41.606Z,11.86
2023-06-19T08:39:41.606Z,11.36
2023-06-19T08:40:41.615Z,11.93
2023-06-19T08:41:41.574Z,11.86
2023-06-19T08:42:41.622Z,12.68
2023-06-19T08:43:41.638Z,12.02
2023-06-19T08:44:41.640Z,11.21
2023-06-19T08:45:41.696Z,12.67
2023-06-19T08:46:41.750Z,11.28
2023-06-19T08:47:41.780Z,11.35
2023-06-19T08:48:41.795Z,11.67
2023-06-19T08:49:41.789Z,11.74
2023-06-19T08:50:41.797Z,12.07
2023-06-19T08:51:41.861Z,12.16
2023-06-19T08:52:41.866Z,11.68
2023-06-19T08:53:41.920Z,12.30
2023-06-19T08:54:41.868Z,11.59
2023-06-19T08:55:41.940Z,11.67
2023-06-19T08:56:41.954Z,11.98
2023-06-19T08:57:41.984Z,11.69
2023-06-19T08:58:41.998Z,12.15
2023-06-19T08:59:41.999Z,11.96
2023-06-19T09:00:42.006Z,11.88
2023-06-19T09:01:42.182Z,10.82
2023-06-19T09:02:42.225Z,12.07
2023-06-19T09:03:42.318Z,11.25
2023-06-19T09:04:42.129Z,11.28
2023-06-19T09:05:42.256Z,11.38
2023-06-19T09:06:42.208Z,11.99
2023-06-19T09:07:42.216Z,12.84
2023-06-19T09:08:42.272Z,11.07
2023-06-19T09:09:42.244Z,11.20
2023-06-19T09:10:42.280Z,11.39
2023-06-19T09:11:42.482Z,11.86
2023-06-19T09:12:42.279Z,11.33
2023-06-19T09:13:42.368Z,11.11
2023-06-19T09:14:42.382Z,11.26
2023-06-19T09:15:42.388Z,12.45
2023-06-19T09:16:42.436Z,12.26
2023-06-19T09:17:42.453Z,11.70
2023-06-19T09:18:42.522Z,12.44
2023-06-19T09:19:42.536Z,12.42
2023-06-19T09:20:42.498Z,11.71
2023-06-19T09:21:42.493Z,10.86
2023-06-19T09:22:42.524Z,12.22
2023-06-19T09:23:42.556Z,11.19
2023-06-19T09:24:42.779Z,11.31
2023-06-19T09:25:42.595Z,10.60
2023-06-19T09:26:42.610Z,12.09
2023-06-19T09:27:42.721Z,12.83
2023-06-19T09:28:42.623Z,10.59
2023-06-19T09:29:42.675Z,11.48
2023-06-19T09:30:42.678Z,12.02
2023-06-19T09:31:42.694Z,12.00
2023-06-19T09:32:42.805Z,12.03
2023-06-19T09:33:42.807Z,10.88
2023-06-19T09:34:42.750Z,11.52
2023-06-19T09:35:43.642Z,10.66
2023-06-19T09:36:42.800Z,10.55
2023-06-19T09:37:42.862Z,10.16
2023-06-19T09:38:42.871Z,11.98
2023-06-19T09:39:42.877Z,10.98
2023-06-19T09:40:42.895Z,11.54
2023-06-19T09:41:42.996Z,10.82
2023-06-19T09:42:42.977Z,10.84
2023-06-19T09:43:42.985Z,10.37
2023-06-19T09:44:46.168Z,12.04
2023-06-19T09:45:43.003Z,12.06
2023-06-19T09:46:43.036Z,12.70
2023-06-19T09:47:43.059Z,10.80
2023-06-19T09:48:42.936Z,11.79
2023-06-19T09:49:42.961Z,11.70
2023-06-19T09:50:42.996Z,11.15
2023-06-19T09:51:42.934Z,12.09
2023-06-19T09:52:42.959Z,10.72
2023-06-19T09:53:42.951Z,11.14
2023-06-19T09:54:42.880Z,11.72
2023-06-19T09:55:42.904Z,11.02
2023-06-19T09:56:42.891Z,11.64
2023-06-19T09:57:42.865Z,12.31
2023-06-19T09:58:42.872Z,10.82
2023-06-19T09:59:42.915Z,10.21
2023-06-19T10:00:42.889Z,11.28
2023-06-19T10:01:42.843Z,10.96
2023-06-19T10:02:42.961Z,10.83
2023-06-19T10:03:42.883Z,11.15
2023-06-19T10:04:42.865Z,10.91
2023-06-19T10:05:42.823Z,10.69
2023-06-19T10:06:42.856Z,11.73
2023-06-19T10:07:42.782Z,10.95
2023-06-19T10:08:43.659Z,10.97
2023-06-19T10:09:42.794Z,10.75
2023-06-19T10:10:42.803Z,11.79
2023-06-19T10:11:42.807Z,12.01
2023-06-19T10:12:42.780Z,11.63
2023-06-19T10:13:42.781Z,11.39
2023-06-19T10:14:42.802Z,10.71
2023-06-19T10:15:42.808Z,11.11
2023-06-19T10:16:43.724Z,10.97
2023-06-19T10:17:42.786Z,11.75
2023-06-19T10:18:42.746Z,11.37
2023-06-19T10:19:42.750Z,11.41
2023-06-19T10:20:46.308Z,11.23
2023-06-19T10:21:42.725Z,10.98
2023-06-19T10:22:42.728Z,10.97
2023-06-19T10:23:42.673Z,10.40
2023-06-19T10:24:42.829Z,10.54
2023-06-19T10:25:42.775Z,11.27
2023-06-19T10:26:42.703Z,10.78
2023-06-19T10:27:44.370Z,10.66
2023-06-19T10:28:42.680Z,11.51
2023-06-19T10:29:47.598Z,11.40
2023-06-19T10:30:43.764Z,10.93
2023-06-19T10:31:42.653Z,11.15
2023-06-19T10:32:42.655Z,11.19
2023-06-19T10:33:42.657Z,10.79
2023-06-19T10:34:42.828Z,11.10
2023-06-19T10:35:42.638Z,11.32
2023-06-19T10:36:42.631Z,10.26
2023-06-19T10:37:42.627Z,11.51
2023-06-19T10:38:42.712Z,11.00
2023-06-19T10:39:42.583Z,10.84
2023-06-19T10:40:42.605Z,10.80
2023-06-19T10:41:42.611Z,10.45
2023-06-19T10:42:42.573Z,11.64
2023-06-19T10:43:42.592Z,10.60
2023-06-19T10:44:42.637Z,11.02
2023-06-19T10:45:42.630Z,10.78
2023-06-19T10:46:42.530Z,10.06
2023-06-19T10:47:42.635Z,11.19
2023-06-19T10:48:42.498Z,10.19
2023-06-19T10:49:42.522Z,10.95
2023-06-19T10:50:42.556Z,10.67
2023-06-19T10:51:42.530Z,10.53
2023-06-19T10:52:42.544Z,10.31
2023-06-19T10:53:42.542Z,10.34
2023-06-19T10:54:42.493Z,10.89
2023-06-19T10:55:42.513Z,10.48
2023-06-19T10:56:42.501Z,10.03
2023-06-19T10:57:42.471Z,10.11
2023-06-19T10:58:42.488Z,10.85
2023-06-19T10:59:42.482Z,9.98
2023-06-19T11:00:42.589Z,10.11
2023-06-19T11:01:42.506Z,10.03
2023-06-19T11:02:42.494Z,9.88
2023-06-19T11:03:42.587Z,10.37
2023-06-19T11:04:42.457Z,10.69
2023-06-19T11:05:42.374Z,10.36
2023-06-19T11:06:42.435Z,10.12
2023-06-19T11:07:42.429Z,9.81
2023-06-19T11:08:42.389Z,9.45
2023-06-19T11:09:44.815Z,9.90
2023-06-19T11:10:42.402Z,9.99
2023-06-19T11:11:42.475Z,9.50
2023-06-19T11:12:43.219Z,10.02
2023-06-19T11:13:42.381Z,8.81
2023-06-19T11:14:42.376Z,9.90
2023-06-19T11:15:42.351Z,9.27
2023-06-19T11:16:42.405Z,10.57
2023-06-19T11:17:42.362Z,9.87
2023-06-19T11:18:42.300Z,9.64
2023-06-19T11:19:42.424Z,9.68
2023-06-19T11:20:42.336Z,10.33
2023-06-19T11:21:42.332Z,8.89
2023-06-19T11:22:42.352Z,9.22
2023-06-19T11:23:42.306Z,9.40
2023-06-19T11:24:42.380Z,9.01
2023-06-19T11:25:42.399Z,9.40
2023-06-19T11:26:42.283Z,9.35
2023-06-19T11:27:42.286Z,9.78
2023-06-19T11:28:42.283Z,9.13
2023-06-19T11:29:42.279Z,10.07
2023-06-19T11:30:42.299Z,9.40
2023-06-19T11:31:42.306Z,9.78
2023-06-19T11:32:42.467Z,9.22
2023-06-19T11:33:42.193Z,9.27
2023-06-19T11:34:42.222Z,10.20
2023-06-19T11:35:42.212Z,8.76
2023-06-19T11:36:42.283Z,8.67
2023-06-19T11:37:42.236Z,8.98
2023-06-19T11:38:42.242Z,9.21
2023-06-19T11:39:42.201Z,9.32
2023-06-19T11:40:42.202Z,9.50
2023-06-19T11:41:42.167Z,9.58
2023-06-19T11:42:42.179Z,9.62
2023-06-19T11:43:42.165Z,9.36
2023-06-19T11:44:42.173Z,8.40
2023-06-19T11:45:42.215Z,9.13
2023-06-19T11:46:42.133Z,8.45
2023-06-19T11:47:42.282Z,8.75
2023-06-19T11:48:45.019Z,8.94
2023-06-19T11:49:43.142Z,9.39
2023-06-19T11:50:42.126Z,9.17
2023-06-19T11:51:42.143Z,8.73
2023-06-19T11:52:42.126Z,8.99
2023-06-19T11:53:42.174Z,8.42
2023-06-19T11:54:42.070Z,9.02
2023-06-19T11:55:42.054Z,8.77
2023-06-19T11:56:42.067Z,8.85
2023-06-19T11:57:42.078Z,10.26
2023-06-19T11:58:42.073Z,9.25
2023-06-19T11:59:42.105Z,9.66
2023-06-19T12:00:42.021Z,8.63
2023-06-19T12:01:42.020Z,8.72
2023-06-19T12:02:42.197Z,8.70
2023-06-19T12:03:42.136Z,8.54
2023-06-19T12:04:42.124Z,9.31
2023-06-19T12:05:42.006Z,8.95
2023-06-19T12:06:42.006Z,9.28
2023-06-19T12:07:42.033Z,9.81
2023-06-19T12:08:41.956Z,8.33
2023-06-19T12:09:42.148Z,9.24
2023-06-19T12:10:42.012Z,8.89
2023-06-19T12:11:41.972Z,8.63
2023-06-19T12:12:42.009Z,9.32
2023-06-19T12:13:42.076Z,8.81
2023-06-19T12:14:42.091Z,8.65
2023-06-19T12:15:42.106Z,8.73
2023-06-19T12:16:42.175Z,8.93
2023-06-19T12:17:42.145Z,9.14
2023-06-19T12:18:42.314Z,9.67
2023-06-19T12:19:42.252Z,8.29
2023-06-19T12:20:42.326Z,9.17
2023-06-19T12:21:43.195Z,8.91
2023-06-19T12:22:42.440Z,8.90
2023-06-19T12:23:42.442Z,9.29
2023-06-19T12:24:42.537Z,8.05
2023-06-19T12:25:42.562Z,8.70
2023-06-19T12:26:42.619Z,8.37
2023-06-19T12:27:42.701Z,8.02
2023-06-19T12:28:42.736Z,9.00
2023-06-19T12:29:42.757Z,8.57
2023-06-19T12:30:42.862Z,8.49
2023-06-19T12:31:43.023Z,7.67
2023-06-19T12:32:43.035Z,8.17
2023-06-19T12:33:43.013Z,8.62
2023-06-19T12:34:43.032Z,8.79
2023-06-19T12:35:43.097Z,7.97
2023-06-19T12:36:43.191Z,7.91
2023-06-19T12:37:43.238Z,8.45
2023-06-19T12:38:43.270Z,8.10
2023-06-19T12:39:43.373Z,8.78
2023-06-19T12:40:43.392Z,8.29
2023-06-19T12:41:43.440Z,8.67
2023-06-19T12:42:43.506Z,8.44
2023-06-19T12:43:43.546Z,8.52
2023-06-19T12:44:43.657Z,7.87
2023-06-19T12:45:43.753Z,7.89
2023-06-19T12:46:43.864Z,8.81
2023-06-19T12:47:43.862Z,9.15
2023-06-19T12:48:43.861Z,9.04
2023-06-19T12:49:43.962Z,8.70
2023-06-19T12:50:44.009Z,8.19
2023-06-19T12:51:44.042Z,7.95
2023-06-19T12:52:44.106Z,8.72
2023-06-19T12:53:44.126Z,8.49
2023-06-19T12:54:44.237Z,8.43
2023-06-19T12:56:00.105Z,8.14
2023-06-19T12:56:45.267Z,7.70
2023-06-19T12:57:44.296Z,8.85
2023-06-19T12:58:44.243Z,7.69
2023-06-19T12:59:44.241Z,8.59
2023-06-19T13:00:44.246Z,8.23
2023-06-19T13:01:44.245Z,8.33
2023-06-19T13:02:44.457Z,8.23
2023-06-19T13:03:44.273Z,8.81
2023-06-19T13:04:44.265Z,8.21
2023-06-19T13:05:44.337Z,8.80
2023-06-19T13:06:44.369Z,9.01
2023-06-19T13:07:44.391Z,7.35
2023-06-19T13:08:44.449Z,7.91
2023-06-19T13:09:44.560Z,7.93
2023-06-19T13:10:44.572Z,9.01